createdAt,value
2015-12-09T00:00:04.450Z,102257
2015-12-09T00:00:17.278Z,102263
2015-12-09T00:00:29.872Z,102254
2015-12-09T00:00:42.516Z,102270
2015-12-09T00:00:55.281Z,102254
2015-12-09T00:01:07.922Z,102257
2015-12-09T00:01:20.516Z,102263
2015-12-09T00:01:33.328Z,102257
2015-12-09T00:01:46.033Z,102260
2015-12-09T00:01:58.643Z,102260
2015-12-09T00:02:11.393Z,102254
2015-12-09T00:02:24.237Z,102263
2015-12-09T00:02:36.815Z,102263
2015-12-09T00:02:49.522Z,102254
2015-12-09T00:03:02.287Z,102248
2015-12-09T00:03:14.912Z,102254
2015-12-09T00:03:27.600Z,102248
2015-12-09T00:03:40.412Z,102263
2015-12-09T00:03:53.056Z,102251
2015-12-09T00:04:05.697Z,102257
2015-12-09T00:04:18.415Z,102254
2015-12-09T00:04:31.181Z,102263
2015-12-09T00:04:44.011Z,102257
2015-12-09T00:04:56.636Z,102247
2015-12-09T00:05:09.339Z,102266
2015-12-09T00:05:22.167Z,102254
2015-12-09T00:05:34.746Z,102260
2015-12-09T00:05:47.389Z,102247
2015-12-09T00:06:00.155Z,102247
2015-12-09T00:06:12.827Z,102247
2015-12-09T00:06:25.436Z,102253
2015-12-09T00:06:38.233Z,102253
2015-12-09T00:06:50.939Z,102250
2015-12-09T00:07:03.642Z,102253
2015-12-09T00:07:16.267Z,102253
2015-12-09T00:07:28.908Z,102250
2015-12-09T00:07:41.689Z,102247
2015-12-09T00:07:54.364Z,102238
2015-12-09T00:08:06.973Z,102247
2015-12-09T00:08:19.770Z,102247
2015-12-09T00:08:33.145Z,102244
2015-12-09T00:08:45.725Z,102238
2015-12-09T00:08:58.475Z,102250
2015-12-09T00:09:11.257Z,102250
2015-12-09T00:09:23.882Z,102238
2015-12-09T00:09:37.788Z,102247
2015-12-09T00:09:50.447Z,102247
2015-12-09T00:10:03.275Z,102244
2015-12-09T00:10:16.010Z,102260
2015-12-09T00:10:28.572Z,102241
2015-12-09T00:10:41.306Z,102238
2015-12-09T00:10:54.044Z,102247
2015-12-09T00:11:06.653Z,102241
2015-12-09T00:11:19.356Z,102241
2015-12-09T00:11:32.138Z,102244
2015-12-09T00:11:44.716Z,102238
2015-12-09T00:11:57.375Z,102238
2015-12-09T00:12:10.187Z,102241
2015-12-09T00:12:24.312Z,102250
2015-12-09T00:12:37.062Z,102241
2015-12-09T00:12:49.674Z,102241
2015-12-09T00:13:02.408Z,102244
2015-12-09T00:13:15.174Z,102244
2015-12-09T00:13:27.783Z,102238
2015-12-09T00:13:40.455Z,102244
2015-12-09T00:13:53.271Z,102244
2015-12-09T00:14:05.927Z,102241
2015-12-09T00:14:18.630Z,102247
2015-12-09T00:14:31.411Z,102244
2015-12-09T00:14:44.067Z,102237
2015-12-09T00:14:56.664Z,102244
2015-12-09T00:15:09.414Z,102244
2015-12-09T00:15:22.102Z,102253
2015-12-09T00:15:34.883Z,102244
2015-12-09T00:15:47.508Z,102234
2015-12-09T00:16:00.119Z,102228
2015-12-09T00:16:12.901Z,102240
2015-12-09T00:16:25.572Z,102240
2015-12-09T00:16:38.166Z,102234
2015-12-09T00:16:50.947Z,102237
2015-12-09T00:17:03.685Z,102234
2015-12-09T00:17:16.310Z,102240
2015-12-09T00:17:29.075Z,102237
2015-12-09T00:17:41.841Z,102225
2015-12-09T00:17:54.531Z,102243
2015-12-09T00:18:07.218Z,102231
2015-12-09T00:18:19.859Z,102225
2015-12-09T00:18:32.671Z,102237
2015-12-09T00:18:45.390Z,102225
2015-12-09T00:18:58.034Z,102240
2015-12-09T00:19:10.799Z,102234
2015-12-09T00:19:23.565Z,102246
2015-12-09T00:19:36.159Z,102256
2015-12-09T00:19:48.877Z,102237
2015-12-09T00:20:01.662Z,102234
2015-12-09T00:20:14.255Z,102234
2015-12-09T00:20:26.927Z,102234
2015-12-09T00:20:39.552Z,102219
2015-12-09T00:20:52.318Z,102222
2015-12-09T00:21:05.055Z,102225
2015-12-09T00:21:17.665Z,102234
2015-12-09T00:21:30.352Z,102225
2015-12-09T00:21:43.165Z,102225
2015-12-09T00:21:55.758Z,102231
2015-12-09T00:22:08.433Z,102225
2015-12-09T00:22:21.261Z,102222
2015-12-09T00:22:33.886Z,102228
2015-12-09T00:22:46.543Z,102218
2015-12-09T00:22:59.357Z,102228
2015-12-09T00:23:12.795Z,102215
2015-12-09T00:23:25.435Z,102212
2015-12-09T00:23:38.263Z,102218
2015-12-09T00:23:51.029Z,102225
2015-12-09T00:24:03.579Z,102209
2015-12-09T00:24:16.329Z,102218
2015-12-09T00:24:29.063Z,102215
2015-12-09T00:24:41.626Z,102212
2015-12-09T00:24:54.344Z,102218
2015-12-09T00:25:07.143Z,102203
2015-12-09T00:25:19.737Z,102224
2015-12-09T00:25:32.409Z,102218
2015-12-09T00:25:45.175Z,102209
2015-12-09T00:25:57.815Z,102212
2015-12-09T00:26:10.538Z,102212
2015-12-09T00:26:23.132Z,102209
2015-12-09T00:26:35.835Z,102215
2015-12-09T00:26:48.663Z,102221
2015-12-09T00:27:01.259Z,102221
2015-12-09T00:27:13.931Z,102209
2015-12-09T00:27:26.712Z,102221
2015-12-09T00:27:39.352Z,102215
2015-12-09T00:27:51.993Z,102221
2015-12-09T00:28:04.809Z,102209
2015-12-09T00:28:17.512Z,102221
2015-12-09T00:28:30.121Z,102215
2015-12-09T00:28:42.902Z,102215
2015-12-09T00:28:55.590Z,102221
2015-12-09T00:29:08.390Z,102218
2015-12-09T00:29:21.046Z,102215
2015-12-09T00:29:33.702Z,102212
2015-12-09T00:29:46.468Z,102212
2015-12-09T00:29:59.140Z,102215
2015-12-09T00:30:11.877Z,102212
2015-12-09T00:30:24.658Z,102227
2015-12-09T00:30:37.361Z,102224
2015-12-09T00:30:49.940Z,102227
2015-12-09T00:31:02.674Z,102224
2015-12-09T00:31:15.427Z,102224
2015-12-09T00:31:28.114Z,102224
2015-12-09T00:31:40.786Z,102227
2015-12-09T00:31:53.474Z,102227
2015-12-09T00:32:06.274Z,102233
2015-12-09T00:32:18.992Z,102212
2015-12-09T00:32:31.586Z,102227
2015-12-09T00:32:44.352Z,102221
2015-12-09T00:32:57.102Z,102227
2015-12-09T00:33:09.713Z,102230
2015-12-09T00:33:22.463Z,102218
2015-12-09T00:33:35.307Z,102233
2015-12-09T00:33:47.932Z,102218
2015-12-09T00:34:00.635Z,102230
2015-12-09T00:34:13.341Z,102221
2015-12-09T00:34:26.122Z,102221
2015-12-09T00:34:38.857Z,102236
2015-12-09T00:34:51.451Z,102227
2015-12-09T00:35:04.185Z,102227
2015-12-09T00:35:16.954Z,102224
2015-12-09T00:35:29.547Z,102236
2015-12-09T00:35:42.204Z,102233
2015-12-09T00:35:55.016Z,102236
2015-12-09T00:36:07.657Z,102230
2015-12-09T00:36:20.268Z,102221
2015-12-09T00:36:33.049Z,102217
2015-12-09T00:36:45.721Z,102227
2015-12-09T00:36:58.502Z,102211
2015-12-09T00:37:11.099Z,102221
2015-12-09T00:37:23.787Z,102208
2015-12-09T00:37:36.584Z,102221
2015-12-09T00:37:49.224Z,102221
2015-12-09T00:38:01.865Z,102221
2015-12-09T00:38:14.680Z,102227
2015-12-09T00:38:27.368Z,102214
2015-12-09T00:38:39.993Z,102214
2015-12-09T00:38:52.758Z,102224
2015-12-09T00:39:05.462Z,102227
2015-12-09T00:39:18.057Z,102224
2015-12-09T00:39:32.276Z,102211
2015-12-09T00:39:44.979Z,102224
2015-12-09T00:39:57.745Z,102224
2015-12-09T00:40:10.417Z,102214
2015-12-09T00:40:22.999Z,102214
2015-12-09T00:40:35.811Z,102211
2015-12-09T00:40:48.530Z,102223
2015-12-09T00:41:01.077Z,102230
2015-12-09T00:41:13.845Z,102220
2015-12-09T00:41:26.595Z,102224
2015-12-09T00:41:39.188Z,102223
2015-12-09T00:41:51.923Z,102220
2015-12-09T00:42:04.720Z,102226
2015-12-09T00:42:17.379Z,102226
2015-12-09T00:42:30.098Z,102217
2015-12-09T00:42:42.723Z,102233
2015-12-09T00:42:55.488Z,102214
2015-12-09T00:43:08.285Z,102214
2015-12-09T00:43:20.896Z,102214
2015-12-09T00:43:33.631Z,102229
2015-12-09T00:43:46.709Z,102229
2015-12-09T00:43:59.334Z,102217
2015-12-09T00:44:12.006Z,102214
2015-12-09T00:44:24.790Z,102211
2015-12-09T00:44:37.415Z,102220
2015-12-09T00:44:50.040Z,102208
2015-12-09T00:45:02.853Z,102217
2015-12-09T00:45:15.524Z,102217
2015-12-09T00:45:28.121Z,102223
2015-12-09T00:45:40.902Z,102226
2015-12-09T00:45:53.637Z,102205
2015-12-09T00:46:06.262Z,102208
2015-12-09T00:46:19.046Z,102220
2015-12-09T00:46:31.801Z,102220
2015-12-09T00:46:44.442Z,102220
2015-12-09T00:46:57.192Z,102226
2015-12-09T00:47:10.004Z,102220
2015-12-09T00:47:22.554Z,102214
2015-12-09T00:47:35.226Z,102235
2015-12-09T00:47:47.882Z,102220
2015-12-09T00:48:00.632Z,102214
2015-12-09T00:48:13.366Z,102223
2015-12-09T00:48:25.978Z,102226
2015-12-09T00:48:38.697Z,102226
2015-12-09T00:48:51.493Z,102214
2015-12-09T00:49:04.103Z,102207
2015-12-09T00:49:16.775Z,102204
2015-12-09T00:49:29.590Z,102214
2015-12-09T00:49:42.215Z,102207
2015-12-09T00:49:54.825Z,102207
2015-12-09T00:50:07.621Z,102211
2015-12-09T00:50:20.293Z,102217
2015-12-09T00:50:33.046Z,102220
2015-12-09T00:50:45.624Z,102217
2015-12-09T00:50:58.312Z,102220
2015-12-09T00:51:11.109Z,102217
2015-12-09T00:51:23.767Z,102211
2015-12-09T00:51:36.376Z,102207
2015-12-09T00:51:49.173Z,102217
2015-12-09T00:52:01.861Z,102207
2015-12-09T00:52:14.501Z,102217
2015-12-09T00:52:27.317Z,102204
2015-12-09T00:52:40.051Z,102217
2015-12-09T00:52:52.614Z,102214
2015-12-09T00:53:05.364Z,102210
2015-12-09T00:53:18.004Z,102210
2015-12-09T00:53:30.773Z,102213
2015-12-09T00:53:43.476Z,102210
2015-12-09T00:53:56.070Z,102210
2015-12-09T00:54:08.867Z,102217
2015-12-09T00:54:21.554Z,102223
2015-12-09T00:54:34.134Z,102213
2015-12-09T00:54:46.869Z,102207
2015-12-09T00:54:59.619Z,102213
2015-12-09T00:55:12.150Z,102210
2015-12-09T00:55:24.869Z,102213
2015-12-09T00:55:37.669Z,102207
2015-12-09T00:55:50.325Z,102207
2015-12-09T00:56:02.997Z,102213
2015-12-09T00:56:15.559Z,102207
2015-12-09T00:56:28.297Z,102210
2015-12-09T00:56:41.015Z,102226
2015-12-09T00:56:53.594Z,102222
2015-12-09T00:57:06.281Z,102210
2015-12-09T00:57:19.062Z,102213
2015-12-09T00:57:31.643Z,102210
2015-12-09T00:57:44.315Z,102210
2015-12-09T00:57:57.097Z,102210
2015-12-09T00:58:09.722Z,102219
2015-12-09T00:58:22.362Z,102216
2015-12-09T00:58:35.053Z,102213
2015-12-09T00:58:47.756Z,102210
2015-12-09T00:59:00.553Z,102210
2015-12-09T00:59:13.131Z,102216
2015-12-09T00:59:25.834Z,102207
2015-12-09T00:59:38.618Z,102204
2015-12-09T00:59:52.181Z,102207
2015-12-09T01:00:05.797Z,102198
2015-12-09T01:00:19.265Z,102195
2015-12-09T01:00:32.157Z,102204
2015-12-09T01:00:44.798Z,102204
2015-12-09T01:00:58.047Z,102201
2015-12-09T01:01:11.629Z,102204
2015-12-09T01:01:24.348Z,102210
2015-12-09T01:01:36.976Z,102207
2015-12-09T01:01:49.663Z,102201
2015-12-09T01:02:02.444Z,102198
2015-12-09T01:02:15.132Z,102210
2015-12-09T01:02:27.694Z,102198
2015-12-09T01:02:40.493Z,102204
2015-12-09T01:02:53.212Z,102207
2015-12-09T01:03:05.806Z,102191
2015-12-09T01:03:18.681Z,102204
2015-12-09T01:03:31.415Z,102207
2015-12-09T01:03:44.043Z,102197
2015-12-09T01:03:56.762Z,102200
2015-12-09T01:04:09.403Z,102186
2015-12-09T01:04:22.199Z,102197
2015-12-09T01:04:34.937Z,102189
2015-12-09T01:04:47.531Z,102197
2015-12-09T01:05:00.327Z,102200
2015-12-09T01:05:13.109Z,102210
2015-12-09T01:05:25.734Z,102210
2015-12-09T01:05:38.486Z,102200
2015-12-09T01:05:51.283Z,102200
2015-12-09T01:06:03.892Z,102216
2015-12-09T01:06:16.595Z,102216
2015-12-09T01:06:30.048Z,102210
2015-12-09T01:06:42.676Z,102222
2015-12-09T01:06:55.317Z,102216
2015-12-09T01:07:08.082Z,102222
2015-12-09T01:07:20.754Z,102231
2015-12-09T01:07:33.379Z,102231
2015-12-09T01:07:46.195Z,102216
2015-12-09T01:07:58.898Z,102216
2015-12-09T01:08:11.492Z,102216
2015-12-09T01:08:24.242Z,102219
2015-12-09T01:08:36.995Z,102231
2015-12-09T01:08:49.588Z,102225
2015-12-09T01:09:02.292Z,102225
2015-12-09T01:09:15.073Z,102225
2015-12-09T01:09:29.135Z,102216
2015-12-09T01:09:48.263Z,102222
2015-12-09T01:10:00.873Z,102219
2015-12-09T01:10:13.638Z,102225
2015-12-09T01:10:26.420Z,102228
2015-12-09T01:10:39.048Z,102212
2015-12-09T01:10:51.782Z,102212
2015-12-09T01:11:04.594Z,102222
2015-12-09T01:11:17.219Z,102219
2015-12-09T01:11:29.891Z,102203
2015-12-09T01:11:42.643Z,102209
2015-12-09T01:11:55.284Z,102219
2015-12-09T01:12:07.925Z,102216
2015-12-09T01:12:20.612Z,102215
2015-12-09T01:12:33.315Z,102215
2015-12-09T01:12:46.084Z,102228
2015-12-09T01:12:58.678Z,102218
2015-12-09T01:13:11.365Z,102218
2015-12-09T01:13:24.162Z,102237
2015-12-09T01:13:36.820Z,102231
2015-12-09T01:13:49.430Z,102240
2015-12-09T01:14:02.226Z,102228
2015-12-09T01:14:14.898Z,102218
2015-12-09T01:14:27.476Z,102218
2015-12-09T01:14:40.245Z,102221
2015-12-09T01:14:52.979Z,102212
2015-12-09T01:15:05.714Z,102224
2015-12-09T01:15:18.339Z,102228
2015-12-09T01:15:30.995Z,102231
2015-12-09T01:15:43.810Z,102231
2015-12-09T01:15:56.513Z,102227
2015-12-09T01:16:09.122Z,102252
2015-12-09T01:16:21.888Z,102243
2015-12-09T01:16:34.575Z,102243
2015-12-09T01:16:47.157Z,102224
2015-12-09T01:16:59.923Z,102221
2015-12-09T01:17:12.673Z,102227
2015-12-09T01:17:25.329Z,102227
2015-12-09T01:17:38.064Z,102227
2015-12-09T01:17:50.706Z,102227
2015-12-09T01:18:03.487Z,102227
2015-12-09T01:18:16.206Z,102218
2015-12-09T01:18:28.800Z,102230
2015-12-09T01:18:41.569Z,102221
2015-12-09T01:18:54.303Z,102224
2015-12-09T01:19:06.928Z,102215
2015-12-09T01:19:19.647Z,102233
2015-12-09T01:19:32.444Z,102236
2015-12-09T01:19:45.040Z,102227
2015-12-09T01:19:57.743Z,102236
2015-12-09T01:20:10.556Z,102233
2015-12-09T01:20:23.212Z,102227
2015-12-09T01:20:35.993Z,102243
2015-12-09T01:20:48.558Z,102233
2015-12-09T01:21:01.292Z,102230
2015-12-09T01:21:14.105Z,102233
2015-12-09T01:21:26.652Z,102233
2015-12-09T01:21:39.324Z,102239
2015-12-09T01:21:52.108Z,102230
2015-12-09T01:22:04.733Z,102221
2015-12-09T01:22:36.733Z,102221
2015-12-09T01:22:42.905Z,102227
2015-12-09T01:22:55.564Z,102224
2015-12-09T01:23:08.173Z,102227
2015-12-09T01:23:20.908Z,102236
2015-12-09T01:23:33.595Z,102224
2015-12-09T01:23:46.379Z,102236
2015-12-09T01:23:59.020Z,102230
2015-12-09T01:24:11.629Z,102224
2015-12-09T01:24:24.458Z,102224
2015-12-09T01:24:37.911Z,102236
2015-12-09T01:24:50.538Z,102233
2015-12-09T01:25:03.335Z,102230
2015-12-09T01:25:16.069Z,102242
2015-12-09T01:25:28.678Z,102233
2015-12-09T01:25:41.569Z,102248
2015-12-09T01:25:54.322Z,102248
2015-12-09T01:26:07.041Z,102255
2015-12-09T01:26:19.713Z,102261
2015-12-09T01:26:32.291Z,102258
2015-12-09T01:26:45.072Z,102264
2015-12-09T01:26:57.778Z,102258
2015-12-09T01:27:10.356Z,102248
2015-12-09T01:27:23.091Z,102270
2015-12-09T01:27:35.841Z,102270
2015-12-09T01:27:48.437Z,102251
2015-12-09T01:28:01.140Z,102261
2015-12-09T01:28:13.922Z,102258
2015-12-09T01:28:26.515Z,102270
2015-12-09T01:28:39.203Z,102261
2015-12-09T01:28:51.986Z,102261
2015-12-09T01:29:04.627Z,102261
2015-12-09T01:29:17.267Z,102264
2015-12-09T01:29:30.096Z,102254
2015-12-09T01:29:42.767Z,102261
2015-12-09T01:29:55.380Z,102248
2015-12-09T01:30:08.192Z,102251
2015-12-09T01:30:20.942Z,102254
2015-12-09T01:30:33.567Z,102242
2015-12-09T01:30:46.333Z,102248
2015-12-09T01:30:59.069Z,102245
2015-12-09T01:31:11.679Z,102245
2015-12-09T01:31:24.397Z,102242
2015-12-09T01:31:37.022Z,102254
2015-12-09T01:31:49.804Z,102245
2015-12-09T01:32:02.494Z,102239
2015-12-09T01:32:15.072Z,102239
2015-12-09T01:32:27.807Z,102239
2015-12-09T01:32:40.557Z,102236
2015-12-09T01:32:53.138Z,102230
2015-12-09T01:33:05.841Z,102236
2015-12-09T01:33:18.622Z,102236
2015-12-09T01:33:31.232Z,102239
2015-12-09T01:33:43.935Z,102223
2015-12-09T01:33:56.702Z,102227
2015-12-09T01:34:09.327Z,102223
2015-12-09T01:34:22.093Z,102223
2015-12-09T01:34:34.718Z,102230
2015-12-09T01:34:47.437Z,102229
2015-12-09T01:35:00.315Z,102226
2015-12-09T01:35:12.940Z,102242
2015-12-09T01:35:25.549Z,102248
2015-12-09T01:35:38.346Z,102245
2015-12-09T01:35:50.987Z,102248
2015-12-09T01:36:03.646Z,102257
2015-12-09T01:36:16.443Z,102260
2015-12-09T01:36:29.130Z,102251
2015-12-09T01:36:41.755Z,102245
2015-12-09T01:36:54.552Z,102251
2015-12-09T01:37:07.680Z,102254
2015-12-09T01:37:20.477Z,102248
2015-12-09T01:37:33.133Z,102245
2015-12-09T01:37:45.758Z,102245
2015-12-09T01:37:58.541Z,102236
2015-12-09T01:38:11.229Z,102239
2015-12-09T01:38:23.870Z,102236
2015-12-09T01:38:36.666Z,102248
2015-12-09T01:38:49.370Z,102248
2015-12-09T01:39:01.982Z,102254
2015-12-09T01:39:14.748Z,102245
2015-12-09T01:39:29.513Z,102254
2015-12-09T01:39:42.857Z,102245
2015-12-09T01:39:55.529Z,102254
2015-12-09T01:40:08.111Z,102239
2015-12-09T01:40:20.892Z,102245
2015-12-09T01:40:33.611Z,102238
2015-12-09T01:40:46.220Z,102232
2015-12-09T01:40:58.955Z,102238
2015-12-09T01:41:11.722Z,102235
2015-12-09T01:41:24.300Z,102235
2015-12-09T01:41:37.035Z,102238
2015-12-09T01:41:49.800Z,102235
2015-12-09T01:42:02.381Z,102235
2015-12-09T01:42:15.052Z,102251
2015-12-09T01:42:27.724Z,102254
2015-12-09T01:42:40.490Z,102248
2015-12-09T01:42:53.256Z,102248
2015-12-09T01:43:05.869Z,102241
2015-12-09T01:43:18.603Z,102241
2015-12-09T01:43:31.385Z,102251
2015-12-09T01:43:44.041Z,102238
2015-12-09T01:43:56.728Z,102235
2015-12-09T01:44:09.465Z,102229
2015-12-09T01:44:22.105Z,102241
2015-12-09T01:44:34.668Z,102244
2015-12-09T01:44:47.043Z,102251
2015-12-09T01:44:59.605Z,102247
2015-12-09T01:45:11.998Z,102254
2015-12-09T01:45:24.560Z,102254
2015-12-09T01:45:37.045Z,102247
2015-12-09T01:45:49.373Z,102251
2015-12-09T01:46:01.920Z,102263
2015-12-09T01:46:14.454Z,102254
2015-12-09T01:46:26.782Z,102257
2015-12-09T01:46:39.251Z,102257
2015-12-09T01:46:51.892Z,102250
2015-12-09T01:47:04.254Z,102260
2015-12-09T01:47:16.707Z,102253
2015-12-09T01:47:29.316Z,102257
2015-12-09T01:47:41.770Z,102247
2015-12-09T01:47:54.301Z,102257
2015-12-09T01:48:06.694Z,102244
2015-12-09T01:48:19.194Z,102253
2015-12-09T01:48:31.804Z,102266
2015-12-09T01:48:44.132Z,102244
2015-12-09T01:48:56.585Z,102269
2015-12-09T01:49:09.166Z,102250
2015-12-09T01:49:21.526Z,102247
2015-12-09T01:49:33.932Z,102244
2015-12-09T01:49:46.432Z,102247
2015-12-09T01:49:58.869Z,102241
2015-12-09T01:50:11.215Z,102250
2015-12-09T01:50:23.840Z,102247
2015-12-09T01:50:36.293Z,102247
2015-12-09T01:50:48.637Z,102244
2015-12-09T01:51:01.168Z,102244
2015-12-09T01:51:13.702Z,102247
2015-12-09T01:51:26.015Z,102241
2015-12-09T01:51:38.468Z,102241
2015-12-09T01:51:51.046Z,102235
2015-12-09T01:52:03.406Z,102244
2015-12-09T01:52:15.830Z,102241
2015-12-09T01:52:28.440Z,102235
2015-12-09T01:52:40.830Z,102247
2015-12-09T01:52:53.252Z,102244
2015-12-09T01:53:05.770Z,102235
2015-12-09T01:53:18.270Z,102235
2015-12-09T01:53:30.864Z,102244
2015-12-09T01:53:43.207Z,102229
2015-12-09T01:53:55.645Z,102229
2015-12-09T01:54:08.226Z,102229
2015-12-09T01:54:20.601Z,102222
2015-12-09T01:54:32.976Z,102235
2015-12-09T01:54:45.539Z,102241
2015-12-09T01:54:57.976Z,102235
2015-12-09T01:55:10.259Z,102222
2015-12-09T01:55:22.837Z,102235
2015-12-09T01:55:35.322Z,102241
2015-12-09T01:55:47.806Z,102235
2015-12-09T01:56:00.166Z,102226
2015-12-09T01:56:12.575Z,102235
2015-12-09T01:56:25.169Z,102235
2015-12-09T01:56:37.575Z,102225
2015-12-09T01:56:49.934Z,102235
2015-12-09T01:57:02.528Z,102235
2015-12-09T01:57:15.031Z,102235
2015-12-09T01:57:27.390Z,102241
2015-12-09T01:57:39.922Z,102219
2015-12-09T01:57:52.484Z,102226
2015-12-09T01:58:04.843Z,102232
2015-12-09T01:58:17.346Z,102228
2015-12-09T01:58:29.753Z,102235
2015-12-09T01:58:42.268Z,102219
2015-12-09T01:58:54.753Z,102228
2015-12-09T01:59:07.068Z,102228
2015-12-09T01:59:19.584Z,102241
2015-12-09T01:59:32.131Z,102235
2015-12-09T01:59:44.474Z,102222
2015-12-09T01:59:56.990Z,102241
2015-12-09T02:00:09.680Z,102216
2015-12-09T02:00:22.023Z,102241
2015-12-09T02:00:34.445Z,102213
2015-12-09T02:00:47.008Z,102219
2015-12-09T02:00:59.398Z,102216
2015-12-09T02:01:11.917Z,102225
2015-12-09T02:01:24.261Z,102222
2015-12-09T02:01:36.745Z,102228
2015-12-09T02:01:49.308Z,102228
2015-12-09T02:02:01.667Z,102234
2015-12-09T02:02:14.092Z,102228
2015-12-09T02:02:26.717Z,102225
2015-12-09T02:02:39.123Z,102228
2015-12-09T02:02:51.576Z,102222
2015-12-09T02:03:04.170Z,102234
2015-12-09T02:03:16.642Z,102228
2015-12-09T02:03:29.001Z,102234
2015-12-09T02:03:41.579Z,102222
2015-12-09T02:03:54.001Z,102219
2015-12-09T02:04:06.597Z,102234
2015-12-09T02:04:18.972Z,102231
2015-12-09T02:04:31.331Z,102231
2015-12-09T02:04:43.909Z,102237
2015-12-09T02:04:56.331Z,102225
2015-12-09T02:05:08.678Z,102231
2015-12-09T02:05:21.256Z,102228
2015-12-09T02:05:33.725Z,102219
2015-12-09T02:05:46.053Z,102231
2015-12-09T02:05:58.569Z,102231
2015-12-09T02:06:11.072Z,102225
2015-12-09T02:06:23.493Z,102219
2015-12-09T02:06:35.931Z,102228
2015-12-09T02:06:49.009Z,102231
2015-12-09T02:07:01.603Z,102231
2015-12-09T02:07:14.089Z,102225
2015-12-09T02:07:26.449Z,102231
2015-12-09T02:07:38.980Z,102222
2015-12-09T02:07:51.527Z,102234
2015-12-09T02:08:03.870Z,102231
2015-12-09T02:08:16.389Z,102222
2015-12-09T02:08:28.983Z,102231
2015-12-09T02:08:41.327Z,102237
2015-12-09T02:08:53.748Z,102228
2015-12-09T02:09:06.186Z,102237
2015-12-09T02:09:18.704Z,102234
2015-12-09T02:09:31.704Z,102225
2015-12-09T02:09:44.047Z,102228
2015-12-09T02:09:56.532Z,102237
2015-12-09T02:10:09.082Z,102231
2015-12-09T02:10:21.425Z,102237
2015-12-09T02:10:33.847Z,102225
2015-12-09T02:10:46.425Z,102237
2015-12-09T02:10:58.800Z,102237
2015-12-09T02:11:11.194Z,102219
2015-12-09T02:11:23.772Z,102234
2015-12-09T02:11:36.163Z,102243
2015-12-09T02:11:48.506Z,102234
2015-12-09T02:12:01.100Z,102237
2015-12-09T02:12:13.618Z,102231
2015-12-09T02:12:25.946Z,102234
2015-12-09T02:12:38.508Z,102234
2015-12-09T02:12:51.040Z,102228
2015-12-09T02:13:03.383Z,102228
2015-12-09T02:13:15.872Z,102228
2015-12-09T02:13:28.434Z,102222
2015-12-09T02:13:40.747Z,102237
2015-12-09T02:13:53.169Z,102222
2015-12-09T02:14:05.747Z,102231
2015-12-09T02:14:18.202Z,102237
2015-12-09T02:14:30.718Z,102228
2015-12-09T02:14:43.077Z,102231
2015-12-09T02:14:55.546Z,102228
2015-12-09T02:15:08.108Z,102228
2015-12-09T02:15:20.423Z,102215
2015-12-09T02:15:32.845Z,102246
2015-12-09T02:15:45.407Z,102228
2015-12-09T02:15:57.798Z,102243
2015-12-09T02:16:10.207Z,102228
2015-12-09T02:16:22.785Z,102234
2015-12-09T02:16:35.207Z,102218
2015-12-09T02:16:47.551Z,102237
2015-12-09T02:17:00.098Z,102228
2015-12-09T02:17:12.538Z,102228
2015-12-09T02:17:25.147Z,102231
2015-12-09T02:17:37.585Z,102228
2015-12-09T02:17:49.976Z,102237
2015-12-09T02:18:02.538Z,102249
2015-12-09T02:18:14.963Z,102231
2015-12-09T02:18:27.307Z,102243
2015-12-09T02:18:39.885Z,102240
2015-12-09T02:18:52.338Z,102227
2015-12-09T02:19:04.666Z,102231
2015-12-09T02:19:17.200Z,102224
2015-12-09T02:19:29.747Z,102234
2015-12-09T02:19:42.216Z,102212
2015-12-09T02:19:54.638Z,102218
2015-12-09T02:20:06.950Z,102234
2015-12-09T02:20:19.515Z,102240
2015-12-09T02:20:31.999Z,102234
2015-12-09T02:20:44.359Z,102234
2015-12-09T02:20:56.905Z,102227
2015-12-09T02:21:09.437Z,102224
2015-12-09T02:21:21.815Z,102221
2015-12-09T02:21:34.315Z,102240
2015-12-09T02:21:46.908Z,102240
2015-12-09T02:21:59.283Z,102240
2015-12-09T02:22:11.754Z,102237
2015-12-09T02:22:24.145Z,102237
2015-12-09T02:22:36.660Z,102227
2015-12-09T02:22:49.176Z,102237
2015-12-09T02:23:01.504Z,102230
2015-12-09T02:23:14.070Z,102224
2015-12-09T02:23:26.648Z,102212
2015-12-09T02:23:38.976Z,102224
2015-12-09T02:23:51.398Z,102221
2015-12-09T02:24:03.976Z,102230
2015-12-09T02:24:16.354Z,102224
2015-12-09T02:24:28.729Z,102224
2015-12-09T02:24:41.291Z,102230
2015-12-09T02:24:53.698Z,102227
2015-12-09T02:25:06.213Z,102227
2015-12-09T02:25:18.543Z,102221
2015-12-09T02:25:30.981Z,102236
2015-12-09T02:25:43.575Z,102221
2015-12-09T02:25:55.965Z,102230
2015-12-09T02:26:08.403Z,102239
2015-12-09T02:26:21.047Z,102239
2015-12-09T02:26:33.485Z,102233
2015-12-09T02:26:45.844Z,102224
2015-12-09T02:26:58.469Z,102224
2015-12-09T02:27:10.969Z,102230
2015-12-09T02:27:23.284Z,102233
2015-12-09T02:27:35.815Z,102239
2015-12-09T02:27:48.190Z,102218
2015-12-09T02:28:00.753Z,102227
2015-12-09T02:28:13.193Z,102215
2015-12-09T02:28:25.537Z,102227
2015-12-09T02:28:38.099Z,102224
2015-12-09T02:28:50.584Z,102230
2015-12-09T02:29:02.896Z,102224
2015-12-09T02:29:15.429Z,102227
2015-12-09T02:29:27.914Z,102227
2015-12-09T02:29:40.242Z,102233
2015-12-09T02:29:52.711Z,102233
2015-12-09T02:30:05.726Z,102227
2015-12-09T02:30:18.151Z,102218
2015-12-09T02:30:30.620Z,102230
2015-12-09T02:30:42.932Z,102224
2015-12-09T02:30:55.479Z,102227
2015-12-09T02:31:08.057Z,102230
2015-12-09T02:31:20.404Z,102224
2015-12-09T02:31:32.920Z,102224
2015-12-09T02:31:45.545Z,102224
2015-12-09T02:31:57.904Z,102221
2015-12-09T02:32:10.342Z,102227
2015-12-09T02:32:22.892Z,102224
2015-12-09T02:32:35.267Z,102233
2015-12-09T02:32:47.642Z,102230
2015-12-09T02:33:00.235Z,102218
2015-12-09T02:33:12.642Z,102221
2015-12-09T02:33:25.003Z,102221
2015-12-09T02:33:37.565Z,102221
2015-12-09T02:33:50.034Z,102212
2015-12-09T02:34:02.362Z,102218
2015-12-09T02:34:14.897Z,102221
2015-12-09T02:34:27.412Z,102218
2015-12-09T02:34:39.725Z,102221
2015-12-09T02:34:52.178Z,102227
2015-12-09T02:35:04.740Z,102227
2015-12-09T02:35:17.103Z,102224
2015-12-09T02:35:29.540Z,102227
2015-12-09T02:35:41.962Z,102221
2015-12-09T02:35:54.493Z,102227
2015-12-09T02:36:07.712Z,102211
2015-12-09T02:36:20.120Z,102227
2015-12-09T02:36:32.620Z,102214
2015-12-09T02:36:45.245Z,102230
2015-12-09T02:36:57.605Z,102211
2015-12-09T02:37:10.042Z,102221
2015-12-09T02:37:23.295Z,102221
2015-12-09T02:37:35.670Z,102221
2015-12-09T02:37:48.045Z,102224
2015-12-09T02:38:00.608Z,102227